Santa Cruz de la Sierra, Bolivia
Current Conditions -  °F | °C
As of 7:00 PM on Monday 26 Jan 2015 (Local Time) from SLET Reporting Station
Broken Clouds Broken Clouds  
Wind Chill: 77°   Ceiling: 20000
Heat Index: 78°   Visibility: 6mi
Dew Point: 72°   Wind: 8mph
Humidity: 83%   Direction: 340°NNW
Pressure: 29.77"   Gusts: NA
Location:  17.79°S, 63.2°W
Report Text: SLET 262300Z 34007KT 9999 SCT015 BKN200 25/22 Q1008
Loading
Personal Weather Stations






























Interactive Weather Map New forecast layout! Learn more

10-Day Weather Forecast

Advertisements
Track Severe Weather on mobile